Terminal Aerodrome Forecast
Issued by NWS

Home | Current Version | Previous Version | Graphics & Text | Print | Product List | Glossary On
Versions: 1 2 3 4 5 6 7 8 9 10 11 12 13 14 15 16 17 18 19 20
000
FTUS43 KOAX 271744
TAFCDR
TAF
KCDR 271744Z 2718/2818 07007KT P6SM SCT060
     FM272100 09010KT P6SM VCTS SCT060CB BKN100
      TEMPO 2721/2724 4SM -TSRA BKN040CB
     FM280100 14005KT P6SM -SHRA VCTS BKN060CB=

USA.gov is the U.S. government's official web portal to all federal, state and local government web resources and services.